Terminal Aerodrome Forecast
Issued by NWS

Home | Current Version | Previous Version | Text Only | Print | Product List | Glossary On
Versions: 1 2 3 4 5 6 7 8 9 10 11 12 13 14 15 16 17 18
682
FTUS46 KSEW 182329
TAFPAE
TAF
KPAE 182329Z 1900/1924 18025G35KT P6SM -RA BKN020 OVC030
     FM190200 19014G24KT 4SM RA SCT012 BKN018 OVC025
     FM190600 18012KT P6SM -RA BKN015 OVC020
     FM191400 18012KT P6SM VCSH BKN020 OVC040
     FM191800 17012KT P6SM VCSH SCT025 BKN040=

USA.gov is the U.S. government's official web portal to all federal, state and local government web resources and services.